createdAt,value
2022-09-11T00:03:16.372Z,1.30
2022-09-11T00:13:21.605Z,1.65
2022-09-11T00:23:25.564Z,1.20
2022-09-11T00:33:28.033Z,1.70
2022-09-11T00:43:31.004Z,1.40
2022-09-11T00:53:35.539Z,1.40
2022-09-11T01:03:37.087Z,2.22
2022-09-11T01:14:13.415Z,1.65
2022-09-11T01:24:36.480Z,1.40
2022-09-11T01:34:58.072Z,1.42
2022-09-11T01:45:00.428Z,1.40
2022-09-11T01:55:08.349Z,1.75
2022-09-11T02:05:22.030Z,1.73
2022-09-11T02:15:32.142Z,1.50
2022-09-11T02:25:34.246Z,1.10
2022-09-11T02:35:43.568Z,1.20
2022-09-11T02:46:23.395Z,1.33
2022-09-11T02:56:57.161Z,0.90
2022-09-11T03:06:59.079Z,1.40
2022-09-11T03:17:00.775Z,1.20
2022-09-11T03:27:04.534Z,1.08
2022-09-11T03:37:06.481Z,1.13
2022-09-11T03:47:08.248Z,1.25
2022-09-11T03:57:10.860Z,1.00
2022-09-11T04:07:13.388Z,1.33
2022-09-11T04:17:15.030Z,1.02
2022-09-11T04:27:18.362Z,0.95
2022-09-11T04:37:22.349Z,1.20
2022-09-11T04:47:25.397Z,1.20
2022-09-11T04:57:27.693Z,1.77
2022-09-11T05:07:29.821Z,1.10
2022-09-11T05:17:32.881Z,0.90
2022-09-11T05:27:35.290Z,0.80
2022-09-11T05:37:37.637Z,1.17
2022-09-11T05:47:39.222Z,0.90
2022-09-11T05:57:40.741Z,1.10
2022-09-11T06:07:42.398Z,0.73
2022-09-11T06:17:44.155Z,1.05
2022-09-11T06:27:45.741Z,0.73
2022-09-11T06:37:47.654Z,0.80
2022-09-11T06:47:49.267Z,0.88
2022-09-11T06:57:51.157Z,0.95
2022-09-11T07:07:57.525Z,0.80
2022-09-11T07:18:03.424Z,0.90
2022-09-11T07:28:06.025Z,0.80
2022-09-11T07:38:07.788Z,0.80
2022-09-11T07:48:13.361Z,1.20
2022-09-11T07:58:14.880Z,0.70
2022-09-11T08:08:16.466Z,0.90
2022-09-11T08:18:18.472Z,0.88
2022-09-11T08:28:20.217Z,0.60
2022-09-11T08:38:23.061Z,1.48
2022-09-11T08:48:32.384Z,0.70
2022-09-11T08:58:33.912Z,0.80
2022-09-11T09:08:42.664Z,0.60
2022-09-11T09:18:55.560Z,0.80
2022-09-11T09:28:59.553Z,0.70
2022-09-11T09:39:01.596Z,0.60
2022-09-11T09:49:04.688Z,0.50
2022-09-11T09:59:09.246Z,0.60
2022-09-11T10:09:26.173Z,0.50
2022-09-11T10:19:37.162Z,0.88
2022-09-11T10:29:50.087Z,0.70
2022-09-11T10:39:52.256Z,0.68
2022-09-11T10:50:23.460Z,0.52
2022-09-11T11:00:27.174Z,0.60
2022-09-11T11:10:35.122Z,0.55
2022-09-11T11:20:52.906Z,0.55
2022-09-11T11:31:09.302Z,0.52
2022-09-11T11:41:20.517Z,0.43
2022-09-11T11:51:27.552Z,0.47
2022-09-11T12:01:43.042Z,0.80
2022-09-11T12:11:50.341Z,0.60
2022-09-11T12:21:54.778Z,0.50
2022-09-11T12:31:59.093Z,0.50
2022-09-11T12:42:28.333Z,0.70
2022-09-11T12:52:34.107Z,0.55
2022-09-11T13:02:38.148Z,0.40
2022-09-11T13:12:50.902Z,0.43
2022-09-11T13:22:58.204Z,0.60
2022-09-11T13:33:07.052Z,0.50
2022-09-11T13:43:13.157Z,0.40
2022-09-11T13:53:14.966Z,0.50
2022-09-11T14:03:28.834Z,0.57
2022-09-11T14:13:46.853Z,0.40
2022-09-11T14:23:56.079Z,0.55
2022-09-11T14:34:12.906Z,0.50
2022-09-11T14:44:18.028Z,0.40
2022-09-11T14:54:20.872Z,0.40
2022-09-11T15:04:23.113Z,0.40
2022-09-11T15:14:51.982Z,0.65
2022-09-11T15:24:49.360Z,0.40
2022-09-11T15:34:51.624Z,0.65
2022-09-11T15:44:53.253Z,0.85
2022-09-11T15:54:54.749Z,0.38
2022-09-11T16:04:56.207Z,0.60
2022-09-11T16:14:57.731Z,0.90
2022-09-11T16:24:59.392Z,0.40
2022-09-11T16:35:01.024Z,0.40
2022-09-11T16:45:02.881Z,0.28
2022-09-11T16:55:06.809Z,0.40
2022-09-11T17:05:09.155Z,0.40
2022-09-11T17:15:10.818Z,0.40
2022-09-11T17:25:12.578Z,0.45
2022-09-11T17:35:14.721Z,0.43
2022-09-11T17:45:16.250Z,0.30
2022-09-11T17:55:18.689Z,0.47
2022-09-11T18:05:20.957Z,0.30
2022-09-11T18:15:22.484Z,0.40
2022-09-11T18:25:25.989Z,0.40
2022-09-11T18:35:27.439Z,0.50
2022-09-11T18:45:30.563Z,0.30
2022-09-11T18:55:32.059Z,0.47
2022-09-11T19:05:33.513Z,0.45
2022-09-11T19:15:34.949Z,0.30
2022-09-11T19:25:36.452Z,0.30
2022-09-11T19:35:38.277Z,0.40
2022-09-11T19:45:39.752Z,0.40
2022-09-11T19:55:41.213Z,0.40
2022-09-11T20:05:43.309Z,0.50
2022-09-11T20:15:45.505Z,0.40
2022-09-11T20:25:47.000Z,0.30
2022-09-11T20:35:48.438Z,0.45
2022-09-11T20:45:50.970Z,0.40
2022-09-11T20:55:52.465Z,0.35
2022-09-11T21:05:54.898Z,0.40
2022-09-11T21:15:56.512Z,0.57
2022-09-11T21:25:58.303Z,0.40
2022-09-11T21:35:59.947Z,0.40
2022-09-11T21:46:01.947Z,0.38
2022-09-11T21:56:03.735Z,0.65
2022-09-11T22:06:06.856Z,0.30
2022-09-11T22:16:10.740Z,0.40
2022-09-11T22:26:16.717Z,0.40
2022-09-11T22:36:23.913Z,0.43
2022-09-11T22:46:26.796Z,0.30
2022-09-11T22:56:28.321Z,0.20
2022-09-11T23:06:48.398Z,0.43
2022-09-11T23:16:49.886Z,0.43
2022-09-11T23:26:51.427Z,0.30
2022-09-11T23:36:52.997Z,0.32
2022-09-11T23:46:54.453Z,0.28
2022-09-11T23:56:56.112Z,0.40
